sensor_id;sensor_type;location;lat;lon;timestamp;temperature;humidity
24730;DHT22;12832;52.392;13.066;2023-07-28T00:00:14;27.60;44.60
24730;DHT22;12832;52.392;13.066;2023-07-28T00:02:40;27.60;44.60
24730;DHT22;12832;52.392;13.066;2023-07-28T00:05:07;27.70;44.60
24730;DHT22;12832;52.392;13.066;2023-07-28T00:07:33;27.70;44.60
24730;DHT22;12832;52.392;13.066;2023-07-28T00:10:01;27.70;44.60
24730;DHT22;12832;52.392;13.066;2023-07-28T00:12:27;27.70;44.60
24730;DHT22;12832;52.392;13.066;2023-07-28T00:14:54;27.70;44.70
24730;DHT22;12832;52.392;13.066;2023-07-28T00:17:20;27.70;44.60
24730;DHT22;12832;52.392;13.066;2023-07-28T00:19:46;27.60;44.60
24730;DHT22;12832;52.392;13.066;2023-07-28T00:22:12;27.70;44.60
24730;DHT22;12832;52.392;13.066;2023-07-28T00:24:38;27.70;44.60
24730;DHT22;12832;52.392;13.066;2023-07-28T00:27:05;27.70;44.60
24730;DHT22;12832;52.392;13.066;2023-07-28T00:29:31;27.70;44.60
24730;DHT22;12832;52.392;13.066;2023-07-28T00:31:57;27.70;44.60
24730;DHT22;12832;52.392;13.066;2023-07-28T00:34:24;27.70;44.60
24730;DHT22;12832;52.392;13.066;2023-07-28T00:36:50;27.60;44.60
24730;DHT22;12832;52.392;13.066;2023-07-28T00:39:16;27.70;44.60
24730;DHT22;12832;52.392;13.066;2023-07-28T00:41:42;27.70;44.60
24730;DHT22;12832;52.392;13.066;2023-07-28T00:44:08;27.70;44.60
24730;DHT22;12832;52.392;13.066;2023-07-28T00:46:35;27.70;44.70
24730;DHT22;12832;52.392;13.066;2023-07-28T00:49:01;27.70;44.60
24730;DHT22;12832;52.392;13.066;2023-07-28T00:51:30;27.70;44.60
24730;DHT22;12832;52.392;13.066;2023-07-28T00:53:57;27.70;44.70
24730;DHT22;12832;52.392;13.066;2023-07-28T00:56:25;27.70;44.60
24730;DHT22;12832;52.392;13.066;2023-07-28T00:58:51;27.70;44.60
24730;DHT22;12832;52.392;13.066;2023-07-28T01:01:17;27.70;44.60
24730;DHT22;12832;52.392;13.066;2023-07-28T01:03:44;27.70;44.60
24730;DHT22;12832;52.392;13.066;2023-07-28T01:09:12;27.70;44.60
24730;DHT22;12832;52.392;13.066;2023-07-28T01:11:53;27.70;44.60
24730;DHT22;12832;52.392;13.066;2023-07-28T01:14:19;27.70;44.70
24730;DHT22;12832;52.392;13.066;2023-07-28T01:16:46;27.70;44.60
24730;DHT22;12832;52.392;13.066;2023-07-28T01:19:12;27.70;45.30
24730;DHT22;12832;52.392;13.066;2023-07-28T01:21:39;27.70;44.60
24730;DHT22;12832;52.392;13.066;2023-07-28T01:24:22;27.70;44.60
24730;DHT22;12832;52.392;13.066;2023-07-28T01:26:54;27.70;44.60
24730;DHT22;12832;52.392;13.066;2023-07-28T01:29:21;27.70;44.60
24730;DHT22;12832;52.392;13.066;2023-07-28T01:31:48;27.70;44.60
24730;DHT22;12832;52.392;13.066;2023-07-28T01:34:14;27.70;44.60
24730;DHT22;12832;52.392;13.066;2023-07-28T01:36:40;27.70;45.30
24730;DHT22;12832;52.392;13.066;2023-07-28T01:39:06;27.70;44.60
24730;DHT22;12832;52.392;13.066;2023-07-28T01:41:33;27.70;44.60
24730;DHT22;12832;52.392;13.066;2023-07-28T01:43:59;27.70;44.60
24730;DHT22;12832;52.392;13.066;2023-07-28T01:46:25;27.70;44.60
24730;DHT22;12832;52.392;13.066;2023-07-28T01:48:51;27.70;44.60
24730;DHT22;12832;52.392;13.066;2023-07-28T01:51:18;27.70;44.60
24730;DHT22;12832;52.392;13.066;2023-07-28T01:53:44;27.70;44.60
24730;DHT22;12832;52.392;13.066;2023-07-28T01:56:10;27.70;44.60
24730;DHT22;12832;52.392;13.066;2023-07-28T01:58:36;27.70;44.60
24730;DHT22;12832;52.392;13.066;2023-07-28T02:01:02;27.70;44.60
24730;DHT22;12832;52.392;13.066;2023-07-28T02:03:28;27.70;44.60
24730;DHT22;12832;52.392;13.066;2023-07-28T02:05:55;27.70;44.60
24730;DHT22;12832;52.392;13.066;2023-07-28T02:08:21;27.70;44.60
24730;DHT22;12832;52.392;13.066;2023-07-28T02:10:47;27.70;44.60
24730;DHT22;12832;52.392;13.066;2023-07-28T02:13:13;27.70;44.60
24730;DHT22;12832;52.392;13.066;2023-07-28T02:15:39;27.70;44.60
24730;DHT22;12832;52.392;13.066;2023-07-28T02:18:07;27.70;44.60
24730;DHT22;12832;52.392;13.066;2023-07-28T02:20:33;27.70;44.60
24730;DHT22;12832;52.392;13.066;2023-07-28T02:23:01;27.70;44.70
24730;DHT22;12832;52.392;13.066;2023-07-28T02:25:28;27.70;44.70
24730;DHT22;12832;52.392;13.066;2023-07-28T02:27:54;27.70;44.70
24730;DHT22;12832;52.392;13.066;2023-07-28T02:30:21;27.70;44.80
24730;DHT22;12832;52.392;13.066;2023-07-28T02:32:47;27.70;44.80
24730;DHT22;12832;52.392;13.066;2023-07-28T02:35:13;27.70;44.90
24730;DHT22;12832;52.392;13.066;2023-07-28T02:37:39;27.70;45.00
24730;DHT22;12832;52.392;13.066;2023-07-28T02:40:06;27.70;45.00
24730;DHT22;12832;52.392;13.066;2023-07-28T02:42:32;27.70;45.10
24730;DHT22;12832;52.392;13.066;2023-07-28T02:45:02;27.70;45.10
24730;DHT22;12832;52.392;13.066;2023-07-28T02:47:28;27.70;45.20
24730;DHT22;12832;52.392;13.066;2023-07-28T02:49:54;27.70;45.30
24730;DHT22;12832;52.392;13.066;2023-07-28T02:52:20;27.70;45.30
24730;DHT22;12832;52.392;13.066;2023-07-28T02:54:47;27.70;45.40
24730;DHT22;12832;52.392;13.066;2023-07-28T02:57:14;27.70;45.40
24730;DHT22;12832;52.392;13.066;2023-07-28T02:59:40;27.70;45.50
24730;DHT22;12832;52.392;13.066;2023-07-28T03:02:06;27.70;45.50
24730;DHT22;12832;52.392;13.066;2023-07-28T03:04:33;27.70;45.50
24730;DHT22;12832;52.392;13.066;2023-07-28T03:06:59;27.60;45.60
24730;DHT22;12832;52.392;13.066;2023-07-28T03:09:25;27.60;45.60
24730;DHT22;12832;52.392;13.066;2023-07-28T03:11:51;27.70;45.70
24730;DHT22;12832;52.392;13.066;2023-07-28T03:14:18;27.70;45.80
24730;DHT22;12832;52.392;13.066;2023-07-28T03:16:44;27.60;45.90
24730;DHT22;12832;52.392;13.066;2023-07-28T03:19:10;27.60;45.80
24730;DHT22;12832;52.392;13.066;2023-07-28T03:21:36;27.60;45.90
24730;DHT22;12832;52.392;13.066;2023-07-28T03:24:05;27.60;46.00
24730;DHT22;12832;52.392;13.066;2023-07-28T03:26:32;27.60;46.00
24730;DHT22;12832;52.392;13.066;2023-07-28T03:28:59;27.60;46.10
24730;DHT22;12832;52.392;13.066;2023-07-28T03:31:25;27.60;46.10
24730;DHT22;12832;52.392;13.066;2023-07-28T03:33:51;27.60;46.30
24730;DHT22;12832;52.392;13.066;2023-07-28T03:36:18;27.60;46.10
24730;DHT22;12832;52.392;13.066;2023-07-28T03:38:45;27.60;46.20
24730;DHT22;12832;52.392;13.066;2023-07-28T03:41:12;27.60;46.20
24730;DHT22;12832;52.392;13.066;2023-07-28T03:43:39;27.60;46.20
24730;DHT22;12832;52.392;13.066;2023-07-28T03:46:05;27.60;46.30
24730;DHT22;12832;52.392;13.066;2023-07-28T03:48:32;27.60;46.30
24730;DHT22;12832;52.392;13.066;2023-07-28T03:50:58;27.60;46.40
24730;DHT22;12832;52.392;13.066;2023-07-28T03:53:24;27.60;47.00
24730;DHT22;12832;52.392;13.066;2023-07-28T03:55:50;27.60;46.40
24730;DHT22;12832;52.392;13.066;2023-07-28T03:58:16;27.60;46.60
24730;DHT22;12832;52.392;13.066;2023-07-28T04:00:42;27.60;46.50
24730;DHT22;12832;52.392;13.066;2023-07-28T04:03:09;27.60;46.60
24730;DHT22;12832;52.392;13.066;2023-07-28T04:05:36;27.60;46.90
24730;DHT22;12832;52.392;13.066;2023-07-28T04:08:02;27.60;47.20
24730;DHT22;12832;52.392;13.066;2023-07-28T04:10:29;27.60;47.30
24730;DHT22;12832;52.392;13.066;2023-07-28T04:12:55;27.50;47.30
24730;DHT22;12832;52.392;13.066;2023-07-28T04:15:21;27.60;47.40
24730;DHT22;12832;52.392;13.066;2023-07-28T04:17:48;27.60;47.50
24730;DHT22;12832;52.392;13.066;2023-07-28T04:20:14;27.50;47.70
24730;DHT22;12832;52.392;13.066;2023-07-28T04:22:41;27.50;47.60
24730;DHT22;12832;52.392;13.066;2023-07-28T04:25:07;27.50;47.60
24730;DHT22;12832;52.392;13.066;2023-07-28T04:27:33;27.50;47.80
24730;DHT22;12832;52.392;13.066;2023-07-28T04:29:59;27.50;47.80
24730;DHT22;12832;52.392;13.066;2023-07-28T04:32:25;27.50;47.90
24730;DHT22;12832;52.392;13.066;2023-07-28T04:34:52;27.50;47.90
24730;DHT22;12832;52.392;13.066;2023-07-28T04:37:19;27.50;47.90
24730;DHT22;12832;52.392;13.066;2023-07-28T04:39:45;27.50;48.00
24730;DHT22;12832;52.392;13.066;2023-07-28T04:42:11;27.50;48.20
24730;DHT22;12832;52.392;13.066;2023-07-28T04:44:38;27.50;48.20
24730;DHT22;12832;52.392;13.066;2023-07-28T04:47:06;27.50;48.20
24730;DHT22;12832;52.392;13.066;2023-07-28T04:49:32;27.50;48.20
24730;DHT22;12832;52.392;13.066;2023-07-28T04:51:58;27.50;48.40
24730;DHT22;12832;52.392;13.066;2023-07-28T04:54:25;27.50;48.40
24730;DHT22;12832;52.392;13.066;2023-07-28T04:56:51;27.50;48.40
24730;DHT22;12832;52.392;13.066;2023-07-28T04:59:19;27.50;48.40
24730;DHT22;12832;52.392;13.066;2023-07-28T05:01:45;27.50;49.20
24730;DHT22;12832;52.392;13.066;2023-07-28T05:04:12;27.50;49.60
24730;DHT22;12832;52.392;13.066;2023-07-28T05:06:38;27.50;49.60
24730;DHT22;12832;52.392;13.066;2023-07-28T05:09:04;27.40;49.70
24730;DHT22;12832;52.392;13.066;2023-07-28T05:11:30;27.40;50.00
24730;DHT22;12832;52.392;13.066;2023-07-28T05:13:56;27.40;50.10
24730;DHT22;12832;52.392;13.066;2023-07-28T05:16:23;27.30;50.10
24730;DHT22;12832;52.392;13.066;2023-07-28T05:18:49;27.30;50.90
24730;DHT22;12832;52.392;13.066;2023-07-28T05:21:15;27.30;50.40
24730;DHT22;12832;52.392;13.066;2023-07-28T05:23:41;27.20;50.40
24730;DHT22;12832;52.392;13.066;2023-07-28T05:26:07;27.20;50.50
24730;DHT22;12832;52.392;13.066;2023-07-28T05:28:34;27.20;50.60
24730;DHT22;12832;52.392;13.066;2023-07-28T05:31:06;27.10;50.70
24730;DHT22;12832;52.392;13.066;2023-07-28T05:33:32;27.20;50.90
24730;DHT22;12832;52.392;13.066;2023-07-28T05:36:00;27.20;50.90
24730;DHT22;12832;52.392;13.066;2023-07-28T05:38:30;27.10;51.00
24730;DHT22;12832;52.392;13.066;2023-07-28T05:40:58;27.20;51.20
24730;DHT22;12832;52.392;13.066;2023-07-28T05:43:27;27.10;51.30
24730;DHT22;12832;52.392;13.066;2023-07-28T05:45:53;27.10;51.40
24730;DHT22;12832;52.392;13.066;2023-07-28T05:48:19;27.10;51.30
24730;DHT22;12832;52.392;13.066;2023-07-28T05:50:45;27.10;51.50
24730;DHT22;12832;52.392;13.066;2023-07-28T05:53:12;27.10;51.50
24730;DHT22;12832;52.392;13.066;2023-07-28T05:55:40;27.10;51.60
24730;DHT22;12832;52.392;13.066;2023-07-28T05:58:06;27.10;51.70
24730;DHT22;12832;52.392;13.066;2023-07-28T06:00:32;27.10;51.80
24730;DHT22;12832;52.392;13.066;2023-07-28T06:02:58;27.10;51.90
24730;DHT22;12832;52.392;13.066;2023-07-28T06:05:25;27.10;51.90
24730;DHT22;12832;52.392;13.066;2023-07-28T06:07:51;27.10;52.00
24730;DHT22;12832;52.392;13.066;2023-07-28T06:10:17;27.10;52.10
24730;DHT22;12832;52.392;13.066;2023-07-28T06:12:44;27.10;52.20
24730;DHT22;12832;52.392;13.066;2023-07-28T06:15:10;27.10;52.10
24730;DHT22;12832;52.392;13.066;2023-07-28T06:17:36;27.10;52.20
24730;DHT22;12832;52.392;13.066;2023-07-28T06:20:03;27.10;52.20
24730;DHT22;12832;52.392;13.066;2023-07-28T06:22:29;27.10;52.30
24730;DHT22;12832;52.392;13.066;2023-07-28T06:24:56;27.10;52.30
24730;DHT22;12832;52.392;13.066;2023-07-28T06:27:22;27.10;52.20
24730;DHT22;12832;52.392;13.066;2023-07-28T06:29:48;27.10;52.30
24730;DHT22;12832;52.392;13.066;2023-07-28T06:32:15;27.10;52.40
24730;DHT22;12832;52.392;13.066;2023-07-28T06:34:41;27.10;52.50
24730;DHT22;12832;52.392;13.066;2023-07-28T06:37:07;27.10;52.50
24730;DHT22;12832;52.392;13.066;2023-07-28T06:39:34;27.10;52.50
24730;DHT22;12832;52.392;13.066;2023-07-28T06:42:00;27.10;52.50
24730;DHT22;12832;52.392;13.066;2023-07-28T06:44:26;27.10;52.60
24730;DHT22;12832;52.392;13.066;2023-07-28T06:46:52;27.10;52.60
24730;DHT22;12832;52.392;13.066;2023-07-28T06:49:18;27.10;52.60
24730;DHT22;12832;52.392;13.066;2023-07-28T06:51:45;27.10;52.70
24730;DHT22;12832;52.392;13.066;2023-07-28T06:54:11;27.10;52.70
24730;DHT22;12832;52.392;13.066;2023-07-28T06:56:39;27.10;52.80
24730;DHT22;12832;52.392;13.066;2023-07-28T06:59:06;27.10;52.70
24730;DHT22;12832;52.392;13.066;2023-07-28T07:01:43;27.10;52.80
24730;DHT22;12832;52.392;13.066;2023-07-28T07:04:09;27.10;52.80
24730;DHT22;12832;52.392;13.066;2023-07-28T07:06:35;27.10;52.90
24730;DHT22;12832;52.392;13.066;2023-07-28T07:09:02;27.10;52.90
24730;DHT22;12832;52.392;13.066;2023-07-28T07:11:29;27.10;52.90
24730;DHT22;12832;52.392;13.066;2023-07-28T07:13:55;27.10;53.00
24730;DHT22;12832;52.392;13.066;2023-07-28T07:16:21;27.10;53.00
24730;DHT22;12832;52.392;13.066;2023-07-28T07:18:53;27.10;53.00
24730;DHT22;12832;52.392;13.066;2023-07-28T07:21:19;27.10;53.00
24730;DHT22;12832;52.392;13.066;2023-07-28T07:23:45;27.10;53.10
24730;DHT22;12832;52.392;13.066;2023-07-28T07:26:11;27.10;53.10
24730;DHT22;12832;52.392;13.066;2023-07-28T07:28:38;27.10;53.10
24730;DHT22;12832;52.392;13.066;2023-07-28T07:31:04;27.10;53.20
24730;DHT22;12832;52.392;13.066;2023-07-28T07:33:30;27.00;53.50
24730;DHT22;12832;52.392;13.066;2023-07-28T07:35:56;27.10;53.30
24730;DHT22;12832;52.392;13.066;2023-07-28T07:38:23;27.10;53.30
24730;DHT22;12832;52.392;13.066;2023-07-28T07:40:49;27.10;53.30
24730;DHT22;12832;52.392;13.066;2023-07-28T07:43:15;27.10;53.40
24730;DHT22;12832;52.392;13.066;2023-07-28T07:45:46;27.10;53.40
24730;DHT22;12832;52.392;13.066;2023-07-28T07:48:13;27.10;53.40
24730;DHT22;12832;52.392;13.066;2023-07-28T07:50:39;27.10;53.40
24730;DHT22;12832;52.392;13.066;2023-07-28T07:53:06;27.00;53.30
24730;DHT22;12832;52.392;13.066;2023-07-28T07:55:32;27.10;53.40
24730;DHT22;12832;52.392;13.066;2023-07-28T07:57:58;27.10;53.50
24730;DHT22;12832;52.392;13.066;2023-07-28T08:00:24;27.00;53.50
24730;DHT22;12832;52.392;13.066;2023-07-28T08:02:50;27.10;53.50
24730;DHT22;12832;52.392;13.066;2023-07-28T08:05:17;27.00;54.10
24730;DHT22;12832;52.392;13.066;2023-07-28T08:07:43;27.00;53.50
24730;DHT22;12832;52.392;13.066;2023-07-28T08:10:10;27.10;53.50
24730;DHT22;12832;52.392;13.066;2023-07-28T08:12:36;27.10;53.50
24730;DHT22;12832;52.392;13.066;2023-07-28T08:15:02;27.10;53.50
24730;DHT22;12832;52.392;13.066;2023-07-28T08:17:29;27.10;53.60
24730;DHT22;12832;52.392;13.066;2023-07-28T08:19:55;27.10;53.60
24730;DHT22;12832;52.392;13.066;2023-07-28T08:22:21;27.10;53.70
24730;DHT22;12832;52.392;13.066;2023-07-28T08:24:48;27.10;53.70
24730;DHT22;12832;52.392;13.066;2023-07-28T08:27:14;27.10;53.70
24730;DHT22;12832;52.392;13.066;2023-07-28T08:29:40;27.00;53.60
24730;DHT22;12832;52.392;13.066;2023-07-28T08:32:07;27.10;53.70
24730;DHT22;12832;52.392;13.066;2023-07-28T08:34:33;27.10;53.80
24730;DHT22;12832;52.392;13.066;2023-07-28T08:36:59;27.10;53.80
24730;DHT22;12832;52.392;13.066;2023-07-28T08:39:25;27.00;53.80
24730;DHT22;12832;52.392;13.066;2023-07-28T08:42:01;27.10;53.80
24730;DHT22;12832;52.392;13.066;2023-07-28T08:44:32;27.10;53.90
24730;DHT22;12832;52.392;13.066;2023-07-28T08:47:03;27.10;53.90
24730;DHT22;12832;52.392;13.066;2023-07-28T08:49:31;27.00;53.90
24730;DHT22;12832;52.392;13.066;2023-07-28T08:52:03;27.00;54.00
24730;DHT22;12832;52.392;13.066;2023-07-28T08:54:29;27.10;54.00
24730;DHT22;12832;52.392;13.066;2023-07-28T08:56:57;27.00;54.00
24730;DHT22;12832;52.392;13.066;2023-07-28T08:59:25;27.10;54.10
24730;DHT22;12832;52.392;13.066;2023-07-28T09:01:54;27.10;54.10
24730;DHT22;12832;52.392;13.066;2023-07-28T09:04:23;27.10;54.20
24730;DHT22;12832;52.392;13.066;2023-07-28T09:06:50;27.10;54.20
24730;DHT22;12832;52.392;13.066;2023-07-28T09:09:21;27.10;54.30
24730;DHT22;12832;52.392;13.066;2023-07-28T09:11:52;27.10;54.30
24730;DHT22;12832;52.392;13.066;2023-07-28T09:14:21;27.10;54.20
24730;DHT22;12832;52.392;13.066;2023-07-28T09:16:49;27.10;54.30
24730;DHT22;12832;52.392;13.066;2023-07-28T09:19:15;27.10;54.30
24730;DHT22;12832;52.392;13.066;2023-07-28T09:21:43;27.10;54.30
24730;DHT22;12832;52.392;13.066;2023-07-28T09:24:13;27.10;54.30
24730;DHT22;12832;52.392;13.066;2023-07-28T09:26:44;27.10;54.30
24730;DHT22;12832;52.392;13.066;2023-07-28T09:29:18;27.10;54.40
24730;DHT22;12832;52.392;13.066;2023-07-28T09:31:46;27.10;54.30
24730;DHT22;12832;52.392;13.066;2023-07-28T09:34:23;27.10;54.30
24730;DHT22;12832;52.392;13.066;2023-07-28T09:36:50;27.10;54.50
24730;DHT22;12832;52.392;13.066;2023-07-28T09:39:19;27.10;54.40
24730;DHT22;12832;52.392;13.066;2023-07-28T09:41:46;27.10;54.40
24730;DHT22;12832;52.392;13.066;2023-07-28T09:44:12;27.10;54.50
24730;DHT22;12832;52.392;13.066;2023-07-28T09:46:53;27.10;54.50
24730;DHT22;12832;52.392;13.066;2023-07-28T09:49:22;27.10;54.60
24730;DHT22;12832;52.392;13.066;2023-07-28T09:51:54;27.10;54.60
24730;DHT22;12832;52.392;13.066;2023-07-28T09:54:24;27.10;54.60
24730;DHT22;12832;52.392;13.066;2023-07-28T09:56:56;27.10;54.60
24730;DHT22;12832;52.392;13.066;2023-07-28T09:59:28;27.10;54.70
24730;DHT22;12832;52.392;13.066;2023-07-28T10:01:58;27.10;54.60
24730;DHT22;12832;52.392;13.066;2023-07-28T10:04:24;27.10;54.70
24730;DHT22;12832;52.392;13.066;2023-07-28T10:06:52;27.10;54.70
24730;DHT22;12832;52.392;13.066;2023-07-28T10:09:27;27.10;54.70
24730;DHT22;12832;52.392;13.066;2023-07-28T10:11:54;27.10;54.70
24730;DHT22;12832;52.392;13.066;2023-07-28T10:14:34;27.10;54.70
24730;DHT22;12832;52.392;13.066;2023-07-28T10:17:06;27.10;54.70
24730;DHT22;12832;52.392;13.066;2023-07-28T10:19:41;27.10;54.70
24730;DHT22;12832;52.392;13.066;2023-07-28T10:22:08;27.10;54.70
24730;DHT22;12832;52.392;13.066;2023-07-28T10:24:56;27.10;54.80
24730;DHT22;12832;52.392;13.066;2023-07-28T10:29:57;27.00;54.90
24730;DHT22;12832;52.392;13.066;2023-07-28T10:32:28;27.10;54.90
24730;DHT22;12832;52.392;13.066;2023-07-28T10:35:09;27.10;54.80
24730;DHT22;12832;52.392;13.066;2023-07-28T10:37:49;27.10;54.90
24730;DHT22;12832;52.392;13.066;2023-07-28T10:40:30;27.10;54.90
24730;DHT22;12832;52.392;13.066;2023-07-28T10:42:58;27.10;54.90
24730;DHT22;12832;52.392;13.066;2023-07-28T10:45:26;27.10;54.90
24730;DHT22;12832;52.392;13.066;2023-07-28T10:47:54;27.10;54.80
24730;DHT22;12832;52.392;13.066;2023-07-28T10:50:29;27.10;54.90
24730;DHT22;12832;52.392;13.066;2023-07-28T10:52:56;27.10;55.00
24730;DHT22;12832;52.392;13.066;2023-07-28T10:55:24;27.10;55.00
24730;DHT22;12832;52.392;13.066;2023-07-28T10:57:53;27.10;55.00
24730;DHT22;12832;52.392;13.066;2023-07-28T11:00:22;27.10;55.00
24730;DHT22;12832;52.392;13.066;2023-07-28T11:02:51;27.10;55.00
24730;DHT22;12832;52.392;13.066;2023-07-28T11:05:21;27.10;54.90
24730;DHT22;12832;52.392;13.066;2023-07-28T11:07:55;27.10;54.90
24730;DHT22;12832;52.392;13.066;2023-07-28T11:10:22;27.10;54.90
24730;DHT22;12832;52.392;13.066;2023-07-28T11:12:49;27.10;54.90
24730;DHT22;12832;52.392;13.066;2023-07-28T11:15:17;27.10;54.90
24730;DHT22;12832;52.392;13.066;2023-07-28T11:17:49;27.10;54.90
24730;DHT22;12832;52.392;13.066;2023-07-28T11:20:16;27.10;54.90
24730;DHT22;12832;52.392;13.066;2023-07-28T11:22:56;27.10;54.90
24730;DHT22;12832;52.392;13.066;2023-07-28T11:25:24;27.10;54.90
24730;DHT22;12832;52.392;13.066;2023-07-28T11:27:51;27.10;54.90
24730;DHT22;12832;52.392;13.066;2023-07-28T11:30:19;27.10;54.90
24730;DHT22;12832;52.392;13.066;2023-07-28T11:32:47;27.10;54.80
24730;DHT22;12832;52.392;13.066;2023-07-28T11:35:15;27.10;54.80
24730;DHT22;12832;52.392;13.066;2023-07-28T11:37:42;27.10;54.80
24730;DHT22;12832;52.392;13.066;2023-07-28T11:40:10;27.10;54.80
24730;DHT22;12832;52.392;13.066;2023-07-28T11:42:38;27.10;54.70
24730;DHT22;12832;52.392;13.066;2023-07-28T11:45:06;27.10;54.70
24730;DHT22;12832;52.392;13.066;2023-07-28T11:47:33;27.10;54.70
24730;DHT22;12832;52.392;13.066;2023-07-28T11:49:59;27.10;54.70
24730;DHT22;12832;52.392;13.066;2023-07-28T11:52:31;27.10;54.70
24730;DHT22;12832;52.392;13.066;2023-07-28T11:55:02;27.10;54.70
24730;DHT22;12832;52.392;13.066;2023-07-28T11:57:29;27.10;54.70
24730;DHT22;12832;52.392;13.066;2023-07-28T11:59:59;27.10;54.70
24730;DHT22;12832;52.392;13.066;2023-07-28T12:02:30;27.10;54.70
24730;DHT22;12832;52.392;13.066;2023-07-28T12:04:57;27.10;54.70
24730;DHT22;12832;52.392;13.066;2023-07-28T12:07:28;27.10;54.70
24730;DHT22;12832;52.392;13.066;2023-07-28T12:10:05;27.10;54.60
24730;DHT22;12832;52.392;13.066;2023-07-28T12:12:43;27.10;54.60
24730;DHT22;12832;52.392;13.066;2023-07-28T12:18:20;27.10;54.70
24730;DHT22;12832;52.392;13.066;2023-07-28T12:20:51;27.10;54.70
24730;DHT22;12832;52.392;13.066;2023-07-28T12:23:19;27.10;54.80
24730;DHT22;12832;52.392;13.066;2023-07-28T12:25:49;27.10;54.80
24730;DHT22;12832;52.392;13.066;2023-07-28T12:28:16;27.10;54.80
24730;DHT22;12832;52.392;13.066;2023-07-28T12:30:46;27.10;54.80
24730;DHT22;12832;52.392;13.066;2023-07-28T12:33:14;27.10;54.90
24730;DHT22;12832;52.392;13.066;2023-07-28T12:35:44;27.10;54.90
24730;DHT22;12832;52.392;13.066;2023-07-28T12:38:13;27.10;54.90
24730;DHT22;12832;52.392;13.066;2023-07-28T12:40:42;27.10;55.00
24730;DHT22;12832;52.392;13.066;2023-07-28T12:43:11;27.10;55.00
24730;DHT22;12832;52.392;13.066;2023-07-28T12:45:57;27.10;55.00
24730;DHT22;12832;52.392;13.066;2023-07-28T12:48:26;27.10;55.10
24730;DHT22;12832;52.392;13.066;2023-07-28T12:50:53;27.10;55.10
24730;DHT22;12832;52.392;13.066;2023-07-28T12:53:22;27.10;55.20
24730;DHT22;12832;52.392;13.066;2023-07-28T12:55:49;27.10;55.20
24730;DHT22;12832;52.392;13.066;2023-07-28T12:58:19;27.10;55.20
24730;DHT22;12832;52.392;13.066;2023-07-28T13:00:48;27.10;55.20
24730;DHT22;12832;52.392;13.066;2023-07-28T13:03:17;27.10;55.20
24730;DHT22;12832;52.392;13.066;2023-07-28T13:05:44;27.10;55.20
24730;DHT22;12832;52.392;13.066;2023-07-28T13:08:10;27.10;55.20
24730;DHT22;12832;52.392;13.066;2023-07-28T13:10:37;27.10;55.20
24730;DHT22;12832;52.392;13.066;2023-07-28T13:13:06;27.10;55.30
24730;DHT22;12832;52.392;13.066;2023-07-28T13:15:39;27.10;55.30
24730;DHT22;12832;52.392;13.066;2023-07-28T13:18:05;27.10;55.40
24730;DHT22;12832;52.392;13.066;2023-07-28T13:20:31;27.10;55.40
24730;DHT22;12832;52.392;13.066;2023-07-28T13:22:58;27.10;55.40
24730;DHT22;12832;52.392;13.066;2023-07-28T13:25:24;27.10;55.50
24730;DHT22;12832;52.392;13.066;2023-07-28T13:27:50;27.10;55.50
24730;DHT22;12832;52.392;13.066;2023-07-28T13:30:16;27.10;55.60
24730;DHT22;12832;52.392;13.066;2023-07-28T13:32:42;27.10;55.60
24730;DHT22;12832;52.392;13.066;2023-07-28T13:35:09;27.10;55.70
24730;DHT22;12832;52.392;13.066;2023-07-28T13:37:35;27.10;55.70
24730;DHT22;12832;52.392;13.066;2023-07-28T13:40:01;27.10;55.70
24730;DHT22;12832;52.392;13.066;2023-07-28T13:42:27;27.10;55.80
24730;DHT22;12832;52.392;13.066;2023-07-28T13:44:54;27.10;55.80
24730;DHT22;12832;52.392;13.066;2023-07-28T13:47:24;27.10;55.80
24730;DHT22;12832;52.392;13.066;2023-07-28T13:49:51;27.10;55.80
24730;DHT22;12832;52.392;13.066;2023-07-28T13:52:18;27.10;55.80
24730;DHT22;12832;52.392;13.066;2023-07-28T13:54:48;27.10;55.80
24730;DHT22;12832;52.392;13.066;2023-07-28T13:57:17;27.10;55.80
24730;DHT22;12832;52.392;13.066;2023-07-28T13:59:43;27.10;55.80
24730;DHT22;12832;52.392;13.066;2023-07-28T14:02:10;27.10;55.90
24730;DHT22;12832;52.392;13.066;2023-07-28T14:04:36;27.10;55.90
24730;DHT22;12832;52.392;13.066;2023-07-28T14:07:02;27.10;55.90
24730;DHT22;12832;52.392;13.066;2023-07-28T14:09:28;27.10;55.90
24730;DHT22;12832;52.392;13.066;2023-07-28T14:11:55;27.10;56.00
24730;DHT22;12832;52.392;13.066;2023-07-28T14:14:21;27.10;56.10
24730;DHT22;12832;52.392;13.066;2023-07-28T14:16:47;27.10;56.10
24730;DHT22;12832;52.392;13.066;2023-07-28T14:19:13;27.10;56.10
24730;DHT22;12832;52.392;13.066;2023-07-28T14:21:39;27.10;56.10
24730;DHT22;12832;52.392;13.066;2023-07-28T14:24:07;27.10;56.20
24730;DHT22;12832;52.392;13.066;2023-07-28T14:26:33;27.10;56.20
24730;DHT22;12832;52.392;13.066;2023-07-28T14:29:00;27.10;56.20
24730;DHT22;12832;52.392;13.066;2023-07-28T14:31:26;27.10;56.30
24730;DHT22;12832;52.392;13.066;2023-07-28T14:33:52;27.10;56.30
24730;DHT22;12832;52.392;13.066;2023-07-28T14:36:18;27.10;56.30
24730;DHT22;12832;52.392;13.066;2023-07-28T14:38:44;27.10;56.30
24730;DHT22;12832;52.392;13.066;2023-07-28T14:41:11;27.10;56.30
24730;DHT22;12832;52.392;13.066;2023-07-28T14:43:37;27.10;56.40
24730;DHT22;12832;52.392;13.066;2023-07-28T14:46:03;27.10;56.50
24730;DHT22;12832;52.392;13.066;2023-07-28T14:48:30;27.10;56.50
24730;DHT22;12832;52.392;13.066;2023-07-28T14:50:56;27.10;56.50
24730;DHT22;12832;52.392;13.066;2023-07-28T14:53:29;27.10;56.50
24730;DHT22;12832;52.392;13.066;2023-07-28T14:55:56;27.10;56.50
24730;DHT22;12832;52.392;13.066;2023-07-28T14:58:23;27.10;56.60
24730;DHT22;12832;52.392;13.066;2023-07-28T15:00:49;27.10;56.60
24730;DHT22;12832;52.392;13.066;2023-07-28T15:03:16;27.10;56.60
24730;DHT22;12832;52.392;13.066;2023-07-28T15:05:42;27.10;56.70
24730;DHT22;12832;52.392;13.066;2023-07-28T15:08:08;27.10;56.70
24730;DHT22;12832;52.392;13.066;2023-07-28T15:10:35;27.10;56.80
24730;DHT22;12832;52.392;13.066;2023-07-28T15:13:01;27.10;56.90
24730;DHT22;12832;52.392;13.066;2023-07-28T15:15:27;27.10;57.00
24730;DHT22;12832;52.392;13.066;2023-07-28T15:17:53;27.10;56.90
24730;DHT22;12832;52.392;13.066;2023-07-28T15:20:20;27.10;56.90
24730;DHT22;12832;52.392;13.066;2023-07-28T15:22:47;27.10;56.90
24730;DHT22;12832;52.392;13.066;2023-07-28T15:25:14;27.10;56.90